createdAt,value
2023-06-04T00:02:19.212Z,0.50
2023-06-04T00:04:46.337Z,0.50
2023-06-04T00:07:13.818Z,0.70
2023-06-04T00:09:40.769Z,0.80
2023-06-04T00:12:07.947Z,0.50
2023-06-04T00:14:34.845Z,0.60
2023-06-04T00:17:01.803Z,0.40
2023-06-04T00:19:28.698Z,0.60
2023-06-04T00:21:55.843Z,0.50
2023-06-04T00:24:22.772Z,0.60
2023-06-04T00:26:49.699Z,0.60
2023-06-04T00:29:16.732Z,0.70
2023-06-04T00:31:43.742Z,0.60
2023-06-04T00:34:11.732Z,0.60
2023-06-04T00:36:38.950Z,0.70
2023-06-04T00:39:05.896Z,0.57
2023-06-04T00:41:32.806Z,0.68
2023-06-04T00:44:03.043Z,0.70
2023-06-04T00:46:32.395Z,0.73
2023-06-04T00:48:59.689Z,0.50
2023-06-04T00:51:27.124Z,0.57
2023-06-04T00:53:54.696Z,0.65
2023-06-04T00:56:21.535Z,0.63
2023-06-04T00:58:48.599Z,0.65
2023-06-04T01:01:37.054Z,0.88
2023-06-04T01:04:06.553Z,0.60
2023-06-04T01:06:40.119Z,0.60
2023-06-04T01:09:07.287Z,0.70
2023-06-04T01:11:36.336Z,0.60
2023-06-04T01:14:04.820Z,0.60
2023-06-04T01:16:42.046Z,0.60
2023-06-04T01:19:49.050Z,0.50
2023-06-04T01:22:44.086Z,0.85
2023-06-04T01:25:24.684Z,0.77
2023-06-04T01:27:56.660Z,0.82
2023-06-04T01:32:58.610Z,0.80
2023-06-04T01:35:29.147Z,0.55
2023-06-04T01:37:56.889Z,0.70
2023-06-04T01:40:24.735Z,0.70
2023-06-04T01:42:51.749Z,0.70
2023-06-04T01:45:18.934Z,0.63
2023-06-04T01:47:45.847Z,0.80
2023-06-04T01:50:12.806Z,0.70
2023-06-04T01:52:41.024Z,0.60
2023-06-04T01:55:10.299Z,0.70
2023-06-04T01:57:37.655Z,0.70
2023-06-04T02:00:07.204Z,1.00
2023-06-04T02:02:44.135Z,0.80
2023-06-04T02:05:11.744Z,0.60
2023-06-04T02:07:46.451Z,0.60
2023-06-04T02:10:18.429Z,0.60
2023-06-04T02:15:27.592Z,0.40
2023-06-04T02:18:00.169Z,0.60
2023-06-04T02:20:28.448Z,0.55
2023-06-04T02:22:58.539Z,0.70
2023-06-04T02:25:27.118Z,0.63
2023-06-04T02:27:54.060Z,0.70
2023-06-04T02:30:20.932Z,0.70
2023-06-04T02:32:52.940Z,0.60
2023-06-04T02:35:22.045Z,0.50
2023-06-04T02:37:49.184Z,0.60
2023-06-04T02:40:16.306Z,0.80
2023-06-04T02:42:43.289Z,0.70
2023-06-04T02:45:11.541Z,0.82
2023-06-04T02:47:38.900Z,0.75
2023-06-04T02:50:06.663Z,0.75
2023-06-04T02:52:34.098Z,0.82
2023-06-04T02:55:00.983Z,0.60
2023-06-04T02:57:27.903Z,0.70
2023-06-04T02:59:56.648Z,0.50
2023-06-04T03:02:23.804Z,0.60
2023-06-04T03:04:52.489Z,0.88
2023-06-04T03:07:23.920Z,0.65
2023-06-04T03:09:51.314Z,0.70
2023-06-04T03:12:18.512Z,0.60
2023-06-04T03:14:45.615Z,0.70
2023-06-04T03:17:12.489Z,0.60
2023-06-04T03:19:41.300Z,0.57
2023-06-04T03:22:09.885Z,0.50
2023-06-04T03:24:38.483Z,0.50
2023-06-04T03:27:06.516Z,0.60
2023-06-04T03:29:34.216Z,0.60
2023-06-04T03:32:04.096Z,0.70
2023-06-04T03:34:35.309Z,0.60
2023-06-04T03:37:04.072Z,0.68
2023-06-04T03:39:35.457Z,0.63
2023-06-04T03:42:06.229Z,0.60
2023-06-04T03:44:33.815Z,0.47
2023-06-04T03:47:01.035Z,0.57
2023-06-04T03:49:28.870Z,0.70
2023-06-04T03:51:56.140Z,0.60
2023-06-04T03:54:24.240Z,0.50
2023-06-04T03:56:52.017Z,0.52
2023-06-04T03:59:19.000Z,0.70
2023-06-04T04:01:47.173Z,0.65
2023-06-04T04:04:14.136Z,0.60
2023-06-04T04:06:41.174Z,0.70
2023-06-04T04:09:08.536Z,0.60
2023-06-04T04:11:36.755Z,0.57
2023-06-04T04:14:04.517Z,0.60
2023-06-04T04:16:31.789Z,0.60
2023-06-04T04:18:59.008Z,0.60
2023-06-04T04:21:26.544Z,0.70
2023-06-04T04:23:53.631Z,0.60
2023-06-04T04:26:20.827Z,0.60
2023-06-04T04:28:53.431Z,0.65
2023-06-04T04:31:23.480Z,0.65
2023-06-04T04:33:52.403Z,0.60
2023-06-04T04:36:22.172Z,0.50
2023-06-04T04:38:55.238Z,0.63
2023-06-04T04:41:27.206Z,0.63
2023-06-04T04:43:55.692Z,0.45
2023-06-04T04:46:29.371Z,0.80
2023-06-04T04:48:56.321Z,0.50
2023-06-04T04:51:23.401Z,0.65
2023-06-04T04:53:51.907Z,0.57
2023-06-04T04:56:18.892Z,0.90
2023-06-04T04:58:49.959Z,0.90
2023-06-04T05:01:16.909Z,1.00
2023-06-04T05:03:44.866Z,1.00
2023-06-04T05:06:14.363Z,0.80
2023-06-04T05:08:43.222Z,1.10
2023-06-04T05:11:11.053Z,0.80
2023-06-04T05:13:39.207Z,0.98
2023-06-04T05:16:12.591Z,1.48
2023-06-04T05:18:42.441Z,1.23
2023-06-04T05:21:13.250Z,1.25
2023-06-04T05:23:49.321Z,1.20
2023-06-04T05:26:17.946Z,1.27
2023-06-04T05:28:45.127Z,1.00
2023-06-04T05:31:14.386Z,1.10
2023-06-04T05:33:41.762Z,0.90
2023-06-04T05:38:48.249Z,1.10
2023-06-04T05:41:17.835Z,1.00
2023-06-04T05:43:45.781Z,1.40
2023-06-04T05:46:15.762Z,1.40
2023-06-04T05:48:43.887Z,1.08
2023-06-04T05:51:10.840Z,0.93
2023-06-04T05:53:40.152Z,1.25
2023-06-04T05:56:07.392Z,1.25
2023-06-04T05:58:35.418Z,1.05
2023-06-04T06:01:04.100Z,1.30
2023-06-04T06:03:31.492Z,1.50
2023-06-04T06:05:59.500Z,0.95
2023-06-04T06:08:26.682Z,0.93
2023-06-04T06:10:54.159Z,1.00
2023-06-04T06:13:21.529Z,0.80
2023-06-04T06:15:53.982Z,0.90
2023-06-04T06:18:21.282Z,0.93
2023-06-04T06:20:48.203Z,1.00
2023-06-04T06:23:15.482Z,1.10
2023-06-04T06:25:46.671Z,0.77
2023-06-04T06:28:22.367Z,0.90
2023-06-04T06:30:50.536Z,0.80
2023-06-04T06:33:17.492Z,0.98
2023-06-04T06:35:47.378Z,1.05
2023-06-04T06:38:16.380Z,0.98
2023-06-04T06:40:44.873Z,0.80
2023-06-04T06:43:11.782Z,0.85
2023-06-04T06:45:38.739Z,0.80
2023-06-04T06:48:06.113Z,0.82
2023-06-04T06:50:34.673Z,0.85
2023-06-04T06:53:01.576Z,0.77
2023-06-04T06:55:28.418Z,0.90
2023-06-04T06:57:57.583Z,0.60
2023-06-04T07:00:25.049Z,0.85
2023-06-04T07:02:52.281Z,1.00
2023-06-04T07:05:19.338Z,0.85
2023-06-04T07:07:47.497Z,0.70
2023-06-04T07:10:14.645Z,0.90
2023-06-04T07:12:43.674Z,0.70
2023-06-04T07:15:11.038Z,0.70
2023-06-04T07:17:38.178Z,0.70
2023-06-04T07:20:07.987Z,0.82
2023-06-04T07:22:35.707Z,0.60
2023-06-04T07:25:02.868Z,0.80
2023-06-04T07:27:29.776Z,0.60
2023-06-04T07:29:56.610Z,0.73
2023-06-04T07:32:23.593Z,0.60
2023-06-04T07:34:50.644Z,0.80
2023-06-04T07:37:17.555Z,0.60
2023-06-04T07:39:44.471Z,0.73
2023-06-04T07:42:11.439Z,0.50
2023-06-04T07:44:39.326Z,0.77
2023-06-04T07:47:06.603Z,0.60
2023-06-04T07:49:33.693Z,0.70
2023-06-04T07:52:01.390Z,0.80
2023-06-04T07:54:28.362Z,0.50
2023-06-04T07:56:57.278Z,0.60
2023-06-04T07:59:24.686Z,0.70
2023-06-04T08:01:52.769Z,0.70
2023-06-04T08:04:20.340Z,0.63
2023-06-04T08:06:47.707Z,0.60
2023-06-04T08:09:14.836Z,0.70
2023-06-04T08:11:44.026Z,0.50
2023-06-04T08:14:12.359Z,0.60
2023-06-04T08:16:39.490Z,0.60
2023-06-04T08:19:07.972Z,0.60
2023-06-04T08:21:35.855Z,0.77
2023-06-04T08:24:03.668Z,0.57
2023-06-04T08:26:31.705Z,0.80
2023-06-04T08:28:58.930Z,0.50
2023-06-04T08:31:25.905Z,0.60
2023-06-04T08:33:52.986Z,0.63
2023-06-04T08:36:19.908Z,0.70
2023-06-04T08:38:50.880Z,0.50
2023-06-04T08:41:31.058Z,0.70
2023-06-04T08:44:02.769Z,0.68
2023-06-04T08:46:33.241Z,0.65
2023-06-04T08:49:04.443Z,0.60
2023-06-04T08:51:38.316Z,0.50
2023-06-04T08:54:06.770Z,0.60
2023-06-04T08:56:34.267Z,0.40
2023-06-04T08:59:03.529Z,0.75
2023-06-04T09:01:34.720Z,0.50
2023-06-04T09:04:06.266Z,0.50
2023-06-04T09:06:34.247Z,0.45
2023-06-04T09:09:06.431Z,0.65
2023-06-04T09:11:56.263Z,0.65
2023-06-04T09:14:23.263Z,0.68
2023-06-04T09:16:52.221Z,0.60
2023-06-04T09:19:20.744Z,0.55
2023-06-04T09:21:58.418Z,0.70
2023-06-04T09:24:27.032Z,0.70
2023-06-04T09:26:53.920Z,0.40
2023-06-04T09:29:21.344Z,0.70
2023-06-04T09:31:58.300Z,0.50
2023-06-04T09:34:29.798Z,0.60
2023-06-04T09:36:57.646Z,0.40
2023-06-04T09:39:24.667Z,0.57
2023-06-04T09:42:01.557Z,0.50
2023-06-04T09:44:29.970Z,0.40
2023-06-04T09:47:00.102Z,0.60
2023-06-04T09:49:27.135Z,0.50
2023-06-04T09:51:54.072Z,0.50
2023-06-04T09:54:21.018Z,0.60
2023-06-04T09:56:47.989Z,0.50
2023-06-04T09:59:15.642Z,0.40
2023-06-04T10:01:44.131Z,0.32
2023-06-04T10:04:14.193Z,0.70
2023-06-04T10:06:42.748Z,0.68
2023-06-04T10:09:10.743Z,0.55
2023-06-04T10:11:57.906Z,0.65
2023-06-04T10:14:28.722Z,0.50
2023-06-04T10:16:59.547Z,0.50
2023-06-04T10:19:28.664Z,0.50
2023-06-04T10:21:55.626Z,0.50
2023-06-04T10:24:24.675Z,0.60
2023-06-04T10:26:53.913Z,0.55
2023-06-04T10:29:22.677Z,0.50
2023-06-04T10:31:54.223Z,0.50
2023-06-04T10:34:21.205Z,0.40
2023-06-04T10:36:48.093Z,0.45
2023-06-04T10:39:15.063Z,0.57
2023-06-04T10:41:42.201Z,0.70
2023-06-04T10:44:09.161Z,0.63
2023-06-04T10:46:44.163Z,0.52
2023-06-04T10:49:15.875Z,0.60
2023-06-04T10:51:44.781Z,0.60
2023-06-04T10:54:11.693Z,0.40
2023-06-04T10:56:39.010Z,0.60
2023-06-04T10:59:16.776Z,1.10
2023-06-04T11:01:44.204Z,0.40
2023-06-04T11:04:25.961Z,0.52
2023-06-04T11:07:11.983Z,0.57
2023-06-04T11:09:49.069Z,0.60
2023-06-04T11:12:16.070Z,0.60
2023-06-04T11:14:55.143Z,0.50
2023-06-04T11:17:22.020Z,0.43
2023-06-04T11:19:49.063Z,0.70
2023-06-04T11:22:16.135Z,0.52
2023-06-04T11:24:43.054Z,0.55
2023-06-04T11:27:15.157Z,0.52
2023-06-04T11:29:52.073Z,0.63
2023-06-04T11:32:26.134Z,0.60
2023-06-04T11:35:02.607Z,0.50
2023-06-04T11:37:31.751Z,0.70
2023-06-04T11:39:58.661Z,0.60
2023-06-04T11:42:25.688Z,0.70
2023-06-04T11:44:57.231Z,0.57
2023-06-04T11:47:25.136Z,0.60
2023-06-04T11:49:59.235Z,0.70
2023-06-04T11:52:26.086Z,0.63
2023-06-04T11:54:53.414Z,0.70
2023-06-04T11:57:20.553Z,0.63
2023-06-04T11:59:47.620Z,0.50
2023-06-04T12:02:14.547Z,0.55
2023-06-04T12:04:41.669Z,0.70
2023-06-04T12:07:10.159Z,0.70
2023-06-04T12:09:39.138Z,0.70
2023-06-04T12:12:08.146Z,0.60
2023-06-04T12:14:35.778Z,0.60
2023-06-04T12:17:10.082Z,0.60
2023-06-04T12:19:49.657Z,0.57
2023-06-04T12:22:16.630Z,0.43
2023-06-04T12:24:55.000Z,0.80
2023-06-04T12:27:24.074Z,0.50
2023-06-04T12:30:02.362Z,0.55
2023-06-04T12:32:29.378Z,0.65
2023-06-04T12:34:56.722Z,0.68
2023-06-04T12:37:26.476Z,0.77
2023-06-04T12:39:54.080Z,0.75
2023-06-04T12:42:21.579Z,0.57
2023-06-04T12:44:48.551Z,0.90
2023-06-04T12:47:17.868Z,0.60
2023-06-04T12:49:46.210Z,0.70
2023-06-04T12:52:15.214Z,0.90
2023-06-04T12:54:43.384Z,0.50
2023-06-04T12:57:10.680Z,0.55
2023-06-04T12:59:37.610Z,0.60
2023-06-04T13:02:04.518Z,0.88
2023-06-04T13:04:31.538Z,0.50
2023-06-04T13:07:00.388Z,0.50
2023-06-04T13:09:29.816Z,0.70
2023-06-04T13:11:56.976Z,0.60
2023-06-04T13:14:23.883Z,0.60
2023-06-04T13:16:52.459Z,0.70
2023-06-04T13:19:21.680Z,0.57
2023-06-04T13:21:48.718Z,0.68
2023-06-04T13:24:16.705Z,0.82
2023-06-04T13:26:43.720Z,0.82
2023-06-04T13:29:10.845Z,0.70
2023-06-04T13:31:40.890Z,0.85
2023-06-04T13:34:25.632Z,0.82
2023-06-04T13:36:53.681Z,0.80
2023-06-04T13:39:20.541Z,0.77
2023-06-04T13:41:47.551Z,0.77
2023-06-04T13:44:14.441Z,0.70
2023-06-04T13:46:43.295Z,0.70
2023-06-04T13:49:10.309Z,0.70
2023-06-04T13:51:37.364Z,1.00
2023-06-04T13:54:04.376Z,0.85
2023-06-04T13:56:31.432Z,0.90
2023-06-04T13:58:58.265Z,0.90
2023-06-04T14:01:25.394Z,0.80
2023-06-04T14:03:53.284Z,0.80
2023-06-04T14:06:20.607Z,0.80
2023-06-04T14:08:47.512Z,0.80
2023-06-04T14:11:14.436Z,0.90
2023-06-04T14:13:42.367Z,0.82
2023-06-04T14:16:09.279Z,0.88
2023-06-04T14:18:36.220Z,0.90
2023-06-04T14:21:03.198Z,0.75
2023-06-04T14:23:30.288Z,0.73
2023-06-04T14:25:57.249Z,0.90
2023-06-04T14:28:24.281Z,1.00
2023-06-04T14:30:51.628Z,0.85
2023-06-04T14:33:18.601Z,0.77
2023-06-04T14:35:47.867Z,1.30
2023-06-04T14:38:16.255Z,1.58
2023-06-04T14:40:44.711Z,1.35
2023-06-04T14:43:15.044Z,1.42
2023-06-04T14:45:42.187Z,1.50
2023-06-04T14:50:40.033Z,1.23
2023-06-04T14:53:09.696Z,1.25
2023-06-04T14:55:37.950Z,1.80
2023-06-04T14:58:05.606Z,1.33
2023-06-04T15:00:33.117Z,1.00
2023-06-04T15:03:01.273Z,1.40
2023-06-04T15:05:28.395Z,1.20
2023-06-04T15:07:55.752Z,1.30
2023-06-04T15:10:22.755Z,1.45
2023-06-04T15:12:49.720Z,1.13
2023-06-04T15:15:16.626Z,1.00
2023-06-04T15:17:46.282Z,1.00
2023-06-04T15:20:15.003Z,1.20
2023-06-04T15:22:42.257Z,1.00
2023-06-04T15:25:09.259Z,0.90
2023-06-04T15:27:36.163Z,1.17
2023-06-04T15:30:03.477Z,1.17
2023-06-04T15:32:30.657Z,1.15
2023-06-04T15:34:59.118Z,0.70
2023-06-04T15:37:26.108Z,0.75
2023-06-04T15:39:52.976Z,1.02
2023-06-04T15:42:19.848Z,1.00
2023-06-04T15:44:46.677Z,1.17
2023-06-04T15:47:13.580Z,1.05
2023-06-04T15:49:40.517Z,1.33
2023-06-04T15:52:07.937Z,1.13
2023-06-04T15:54:45.894Z,0.80
2023-06-04T15:57:13.901Z,1.00
2023-06-04T15:59:41.552Z,0.90
2023-06-04T16:02:08.617Z,1.02
2023-06-04T16:04:35.680Z,1.17
2023-06-04T16:07:03.239Z,1.00
2023-06-04T16:09:30.592Z,1.23
2023-06-04T16:11:57.677Z,0.88
2023-06-04T16:14:24.616Z,1.35
2023-06-04T16:16:51.744Z,1.00
2023-06-04T16:19:18.896Z,1.10
2023-06-04T16:21:45.985Z,0.90
2023-06-04T16:24:12.961Z,1.02
2023-06-04T16:26:39.909Z,0.98
2023-06-04T16:29:06.838Z,1.20
2023-06-04T16:31:34.206Z,1.00
2023-06-04T16:34:01.140Z,1.20
2023-06-04T16:36:28.084Z,1.10
2023-06-04T16:38:55.026Z,1.20
2023-06-04T16:41:22.958Z,1.00
2023-06-04T16:43:49.848Z,1.20
2023-06-04T16:46:16.905Z,1.02
2023-06-04T16:48:44.235Z,1.10
2023-06-04T16:51:11.872Z,1.15
2023-06-04T16:53:38.918Z,1.40
2023-06-04T16:56:06.426Z,1.10
2023-06-04T16:58:35.724Z,1.17
2023-06-04T17:01:03.563Z,1.00
2023-06-04T17:03:31.048Z,1.00
2023-06-04T17:05:58.238Z,1.10
2023-06-04T17:08:25.132Z,1.00
2023-06-04T17:10:52.034Z,0.95
2023-06-04T17:13:18.927Z,0.70
2023-06-04T17:15:45.784Z,1.10
2023-06-04T17:18:12.942Z,0.80
2023-06-04T17:20:40.558Z,0.90
2023-06-04T17:23:24.908Z,1.08
2023-06-04T17:25:52.056Z,0.93
2023-06-04T17:28:19.463Z,1.20
2023-06-04T17:30:46.493Z,0.93
2023-06-04T17:33:13.903Z,0.88
2023-06-04T17:35:41.016Z,1.00
2023-06-04T17:38:07.975Z,0.93
2023-06-04T17:40:37.965Z,1.08
2023-06-04T17:43:05.059Z,0.90
2023-06-04T17:45:33.185Z,0.88
2023-06-04T17:48:00.542Z,1.10
2023-06-04T17:50:27.547Z,0.80
2023-06-04T17:52:54.489Z,0.93
2023-06-04T17:55:21.467Z,1.17
2023-06-04T17:57:48.416Z,1.02
2023-06-04T18:00:15.867Z,1.20
2023-06-04T18:02:42.772Z,1.00
2023-06-04T18:05:10.442Z,1.52
2023-06-04T18:07:37.641Z,1.02
2023-06-04T18:10:07.094Z,1.10
2023-06-04T18:12:36.430Z,1.05
2023-06-04T18:15:04.543Z,1.15
2023-06-04T18:17:32.395Z,1.48
2023-06-04T18:19:59.376Z,1.30
2023-06-04T18:22:26.224Z,1.40
2023-06-04T18:24:54.432Z,1.10
2023-06-04T18:27:22.429Z,1.48
2023-06-04T18:29:50.296Z,1.70
2023-06-04T18:32:18.289Z,1.02
2023-06-04T18:34:45.588Z,1.65
2023-06-04T18:37:12.749Z,1.25
2023-06-04T18:39:39.600Z,1.10
2023-06-04T18:42:17.682Z,1.38
2023-06-04T18:44:53.448Z,1.10
2023-06-04T18:47:20.517Z,1.40
2023-06-04T18:49:47.440Z,1.17
2023-06-04T18:52:14.389Z,1.05
2023-06-04T18:54:42.802Z,1.40
2023-06-04T18:57:13.305Z,1.35
2023-06-04T18:59:40.181Z,1.38
2023-06-04T19:02:07.150Z,1.10
2023-06-04T19:04:34.151Z,1.30
2023-06-04T19:07:03.259Z,1.52
2023-06-04T19:09:30.393Z,1.30
2023-06-04T19:11:57.290Z,1.27
2023-06-04T19:14:24.254Z,1.10
2023-06-04T19:16:52.214Z,1.35
2023-06-04T19:19:20.867Z,1.63
2023-06-04T19:21:52.686Z,1.30
2023-06-04T19:24:21.833Z,1.40
2023-06-04T19:26:49.940Z,1.20
2023-06-04T19:29:16.950Z,1.42
2023-06-04T19:31:43.900Z,1.10
2023-06-04T19:34:10.802Z,1.60
2023-06-04T19:36:37.684Z,1.20
2023-06-04T19:39:04.531Z,1.17
2023-06-04T19:41:31.366Z,1.20
2023-06-04T19:43:58.304Z,1.25
2023-06-04T19:46:25.195Z,1.35
2023-06-04T19:48:52.150Z,1.40
2023-06-04T19:51:19.164Z,1.38
2023-06-04T19:53:46.465Z,1.42
2023-06-04T19:56:13.393Z,1.27
2023-06-04T19:58:40.325Z,1.50
2023-06-04T20:01:07.350Z,1.27
2023-06-04T20:03:35.659Z,1.40
2023-06-04T20:06:02.756Z,1.13
2023-06-04T20:08:29.589Z,1.15
2023-06-04T20:10:56.642Z,1.00
2023-06-04T20:13:23.598Z,1.10
2023-06-04T20:15:50.500Z,1.27
2023-06-04T20:18:17.435Z,1.20
2023-06-04T20:20:44.328Z,1.35
2023-06-04T20:23:11.224Z,1.20
2023-06-04T20:25:38.108Z,0.90
2023-06-04T20:28:04.962Z,1.25
2023-06-04T20:30:31.889Z,1.20
2023-06-04T20:32:58.807Z,1.25
2023-06-04T20:35:25.965Z,0.98
2023-06-04T20:37:54.903Z,1.10
2023-06-04T20:40:22.641Z,1.10
2023-06-04T20:42:49.782Z,0.80
2023-06-04T20:45:16.892Z,1.33
2023-06-04T20:47:43.844Z,1.23
2023-06-04T20:50:11.519Z,1.33
2023-06-04T20:52:40.160Z,1.23
2023-06-04T20:55:08.161Z,1.52
2023-06-04T20:57:35.065Z,1.35
2023-06-04T21:00:02.901Z,0.90
2023-06-04T21:02:29.853Z,1.00
2023-06-04T21:04:56.801Z,1.17
2023-06-04T21:07:23.733Z,0.90
2023-06-04T21:09:50.820Z,1.30
2023-06-04T21:12:17.663Z,1.05
2023-06-04T21:14:44.613Z,1.10
2023-06-04T21:17:11.558Z,1.00
2023-06-04T21:19:38.489Z,1.00
2023-06-04T21:22:05.535Z,1.00
2023-06-04T21:24:32.555Z,1.35
2023-06-04T21:26:59.645Z,1.33
2023-06-04T21:29:26.537Z,0.95
2023-06-04T21:31:53.526Z,1.13
2023-06-04T21:34:20.822Z,1.05
2023-06-04T21:36:48.891Z,1.00
2023-06-04T21:39:15.857Z,1.02
2023-06-04T21:41:42.703Z,0.98
2023-06-04T21:44:09.660Z,0.90
2023-06-04T21:46:36.987Z,1.10
2023-06-04T21:49:03.882Z,1.10
2023-06-04T21:51:30.911Z,1.02
2023-06-04T21:53:57.765Z,0.93
2023-06-04T21:56:24.684Z,0.93
2023-06-04T21:58:51.990Z,0.90
2023-06-04T22:01:18.954Z,1.30
2023-06-04T22:03:46.102Z,1.00
2023-06-04T22:06:13.028Z,0.80
2023-06-04T22:08:39.869Z,1.10
2023-06-04T22:11:06.934Z,1.10
2023-06-04T22:13:33.968Z,0.90
2023-06-04T22:16:00.968Z,0.98
2023-06-04T22:18:34.861Z,0.93
2023-06-04T22:21:08.108Z,1.08
2023-06-04T22:23:36.659Z,1.00
2023-06-04T22:26:03.719Z,1.08
2023-06-04T22:28:30.654Z,1.23
2023-06-04T22:30:57.591Z,1.00
2023-06-04T22:33:24.474Z,1.27
2023-06-04T22:35:51.602Z,0.90
2023-06-04T22:38:18.477Z,1.02
2023-06-04T22:40:46.565Z,0.90
2023-06-04T22:43:13.720Z,1.23
2023-06-04T22:45:41.709Z,1.25
2023-06-04T22:48:08.811Z,1.00
2023-06-04T22:50:38.122Z,1.13
2023-06-04T22:53:09.289Z,0.95
2023-06-04T22:55:36.900Z,1.00
2023-06-04T22:58:04.503Z,0.80
2023-06-04T23:00:31.994Z,1.15
2023-06-04T23:02:59.246Z,0.80
2023-06-04T23:05:26.267Z,0.93
2023-06-04T23:07:53.224Z,1.10
2023-06-04T23:10:20.106Z,0.90
2023-06-04T23:12:47.006Z,1.10
2023-06-04T23:15:24.678Z,1.13
2023-06-04T23:17:52.415Z,0.90
2023-06-04T23:20:20.007Z,1.00
2023-06-04T23:22:47.165Z,0.93
2023-06-04T23:25:16.937Z,1.33
2023-06-04T23:27:43.854Z,1.20
2023-06-04T23:30:11.469Z,1.10
2023-06-04T23:32:38.482Z,1.00
2023-06-04T23:35:05.838Z,0.95
2023-06-04T23:37:32.689Z,0.85
2023-06-04T23:39:59.541Z,1.17
2023-06-04T23:42:26.365Z,0.90
2023-06-04T23:44:53.281Z,1.00
2023-06-04T23:47:20.325Z,0.90
2023-06-04T23:49:47.423Z,1.00
2023-06-04T23:52:14.354Z,1.00
2023-06-04T23:54:41.181Z,1.00
2023-06-04T23:57:08.079Z,1.00
2023-06-04T23:59:35.064Z,1.23
